createdAt,value
2018-01-28T00:02:11.378Z,86.69
2018-01-28T00:04:38.814Z,86.73
2018-01-28T00:07:06.294Z,87.03
2018-01-28T00:09:33.739Z,86.85
2018-01-28T00:12:01.240Z,86.20
2018-01-28T00:14:28.693Z,86.89
2018-01-28T00:16:56.243Z,87.12
2018-01-28T00:19:23.757Z,87.08
2018-01-28T00:21:51.193Z,87.25
2018-01-28T00:24:18.651Z,86.84
2018-01-28T00:26:46.119Z,87.17
2018-01-28T00:29:13.566Z,86.85
2018-01-28T00:31:41.019Z,86.89
2018-01-28T00:34:08.664Z,86.68
2018-01-28T00:36:36.119Z,86.62
2018-01-28T00:39:03.577Z,86.35
2018-01-28T00:41:31.019Z,86.71
2018-01-28T00:43:58.475Z,86.58
2018-01-28T00:46:25.908Z,86.17
2018-01-28T00:48:53.382Z,86.21
2018-01-28T00:51:20.825Z,86.06
2018-01-28T00:53:48.341Z,86.49
2018-01-28T00:56:15.768Z,86.24
2018-01-28T00:58:43.221Z,86.29
2018-01-28T01:01:10.671Z,86.10
2018-01-28T01:03:38.887Z,85.87
2018-01-28T01:06:06.317Z,85.64
2018-01-28T01:08:33.874Z,85.78
2018-01-28T01:11:01.318Z,85.47
2018-01-28T01:13:28.764Z,85.29
2018-01-28T01:15:56.246Z,85.02
2018-01-28T01:18:23.688Z,84.96
2018-01-28T01:20:51.153Z,85.00
2018-01-28T01:23:18.598Z,84.60
2018-01-28T01:25:46.065Z,84.46
2018-01-28T01:28:13.516Z,84.24
2018-01-28T01:30:41.930Z,84.33
2018-01-28T01:33:09.373Z,84.17
2018-01-28T01:35:36.864Z,84.18
2018-01-28T01:38:04.309Z,84.21
2018-01-28T01:40:31.795Z,84.22
2018-01-28T01:42:59.251Z,84.14
2018-01-28T01:45:26.709Z,83.73
2018-01-28T01:47:54.172Z,84.09
2018-01-28T01:50:21.681Z,84.81
2018-01-28T01:52:49.132Z,84.78
2018-01-28T01:55:16.956Z,84.68
2018-01-28T01:57:44.398Z,84.70
2018-01-28T02:00:11.871Z,84.60
2018-01-28T02:02:39.323Z,84.50
2018-01-28T02:05:06.782Z,84.36
2018-01-28T02:07:34.259Z,84.08
2018-01-28T02:10:01.701Z,84.17
2018-01-28T02:12:29.157Z,84.10
2018-01-28T02:14:56.605Z,84.08
2018-01-28T02:17:24.069Z,84.32
2018-01-28T02:19:51.504Z,83.97
2018-01-28T02:22:18.961Z,83.81
2018-01-28T02:24:46.403Z,83.67
2018-01-28T02:27:13.869Z,83.41
2018-01-28T02:29:41.334Z,83.20
2018-01-28T02:32:08.817Z,83.42
2018-01-28T02:34:36.262Z,83.36
2018-01-28T02:37:04.000Z,83.32
2018-01-28T02:39:31.440Z,83.37
2018-01-28T02:41:58.908Z,83.03
2018-01-28T02:44:26.348Z,83.21
2018-01-28T02:46:53.789Z,82.92
2018-01-28T02:49:21.304Z,83.06
2018-01-28T02:51:48.749Z,83.04
2018-01-28T02:54:16.210Z,82.72
2018-01-28T02:56:43.813Z,82.84
2018-01-28T02:59:11.273Z,83.31
2018-01-28T03:01:40.112Z,82.66
2018-01-28T03:04:07.563Z,81.95
2018-01-28T03:06:34.997Z,81.79
2018-01-28T03:09:02.446Z,80.86
2018-01-28T03:11:29.873Z,80.54
2018-01-28T03:13:57.325Z,80.53
2018-01-28T03:16:24.774Z,81.19
2018-01-28T03:18:52.230Z,81.61
2018-01-28T03:21:19.668Z,82.04
2018-01-28T03:23:47.137Z,81.59
2018-01-28T03:26:14.753Z,81.54
2018-01-28T03:28:42.334Z,81.06
2018-01-28T03:31:09.761Z,80.73
2018-01-28T03:33:37.207Z,79.02
2018-01-28T03:36:04.662Z,79.34
2018-01-28T03:38:32.136Z,78.68
2018-01-28T03:40:59.613Z,78.33
2018-01-28T03:43:28.438Z,78.02
2018-01-28T03:45:55.898Z,77.74
2018-01-28T03:48:23.335Z,77.42
2018-01-28T03:50:50.786Z,77.20
2018-01-28T03:53:18.218Z,77.10
2018-01-28T03:55:45.670Z,77.02
2018-01-28T03:58:13.108Z,76.20
2018-01-28T04:00:40.541Z,76.25
2018-01-28T04:03:08.144Z,76.57
2018-01-28T04:05:35.604Z,76.73
2018-01-28T04:08:03.024Z,77.85
2018-01-28T04:10:30.486Z,79.67
2018-01-28T04:12:57.924Z,79.09
2018-01-28T04:15:25.362Z,79.56
2018-01-28T04:17:52.798Z,78.71
2018-01-28T04:20:20.333Z,78.29
2018-01-28T04:22:47.762Z,79.21
2018-01-28T04:25:15.237Z,78.42
2018-01-28T04:27:42.692Z,77.99
2018-01-28T04:30:10.122Z,78.17
2018-01-28T04:32:37.577Z,78.20
2018-01-28T04:35:05.110Z,77.91
2018-01-28T04:37:32.642Z,76.96
2018-01-28T04:40:00.143Z,76.70
2018-01-28T04:42:27.579Z,76.05
2018-01-28T04:44:55.005Z,75.38
2018-01-28T04:47:22.457Z,74.77
2018-01-28T04:49:49.895Z,74.47
2018-01-28T04:52:17.369Z,74.48
2018-01-28T04:54:44.810Z,74.40
2018-01-28T04:57:12.279Z,75.09
2018-01-28T04:59:39.719Z,76.17
2018-01-28T05:02:07.179Z,76.78
2018-01-28T05:04:34.608Z,76.98
2018-01-28T05:07:02.083Z,78.97
2018-01-28T05:09:29.507Z,79.41
2018-01-28T05:11:56.917Z,80.40
2018-01-28T05:14:24.365Z,80.44
2018-01-28T05:16:51.814Z,81.57
2018-01-28T05:19:19.273Z,82.40
2018-01-28T05:21:46.737Z,83.13
2018-01-28T05:24:14.225Z,84.26
2018-01-28T05:26:41.652Z,84.22
2018-01-28T05:29:09.698Z,84.69
2018-01-28T05:31:37.328Z,86.12
2018-01-28T05:34:04.792Z,86.02
2018-01-28T05:36:32.219Z,86.38
2018-01-28T05:38:59.671Z,85.62
2018-01-28T05:41:27.127Z,85.95
2018-01-28T05:43:54.629Z,87.09
2018-01-28T05:46:22.045Z,87.98
2018-01-28T05:48:49.506Z,89.53
2018-01-28T05:51:16.965Z,90.49
2018-01-28T05:53:44.460Z,89.69
2018-01-28T05:56:11.932Z,89.95
2018-01-28T05:58:39.741Z,91.14
2018-01-28T06:01:07.176Z,90.42
2018-01-28T06:03:34.612Z,90.73
2018-01-28T06:06:02.071Z,90.40
2018-01-28T06:08:29.616Z,91.07
2018-01-28T06:10:57.086Z,91.77
2018-01-28T06:13:24.512Z,91.25
2018-01-28T06:15:51.960Z,91.79
2018-01-28T06:18:19.400Z,91.32
2018-01-28T06:20:46.849Z,90.88
2018-01-28T06:23:14.281Z,90.51
2018-01-28T06:25:41.775Z,90.94
2018-01-28T06:28:10.068Z,91.20
2018-01-28T06:30:37.502Z,90.97
2018-01-28T06:33:04.947Z,90.63
2018-01-28T06:35:32.373Z,90.30
2018-01-28T06:37:59.810Z,90.67
2018-01-28T06:40:27.233Z,90.94
2018-01-28T06:42:54.684Z,90.82
2018-01-28T06:45:22.169Z,90.79
2018-01-28T06:47:49.668Z,90.36
2018-01-28T06:50:17.132Z,90.26
2018-01-28T06:52:45.069Z,89.97
2018-01-28T06:55:12.501Z,90.30
2018-01-28T06:57:40.206Z,90.16
2018-01-28T07:00:07.620Z,90.13
2018-01-28T07:02:35.098Z,90.49
2018-01-28T07:05:02.520Z,90.57
2018-01-28T07:07:29.999Z,90.86
2018-01-28T07:09:57.453Z,90.75
2018-01-28T07:12:24.892Z,90.54
2018-01-28T07:14:52.321Z,90.66
2018-01-28T07:17:19.876Z,90.49
2018-01-28T07:19:47.377Z,89.97
2018-01-28T07:22:14.808Z,89.83
2018-01-28T07:24:42.255Z,89.49
2018-01-28T07:27:11.041Z,90.23
2018-01-28T07:29:38.721Z,90.54
2018-01-28T07:32:06.738Z,90.47
2018-01-28T07:34:34.177Z,89.90
2018-01-28T07:37:01.589Z,89.96
2018-01-28T07:39:29.033Z,89.87
2018-01-28T07:41:56.445Z,89.94
2018-01-28T07:44:23.953Z,90.04
2018-01-28T07:46:51.396Z,89.95
2018-01-28T07:49:18.877Z,89.78
2018-01-28T07:51:46.319Z,89.97
2018-01-28T07:54:13.756Z,89.52
2018-01-28T07:56:41.179Z,89.71
2018-01-28T07:59:09.782Z,89.16
2018-01-28T08:01:37.293Z,89.45
2018-01-28T08:04:04.828Z,89.38
2018-01-28T08:06:32.290Z,89.02
2018-01-28T08:09:00.210Z,89.20
2018-01-28T08:11:33.342Z,88.59
2018-01-28T08:14:03.228Z,89.23
2018-01-28T08:16:30.653Z,88.61
2018-01-28T08:18:58.068Z,88.42
2018-01-28T08:21:25.521Z,87.66
2018-01-28T08:23:52.933Z,87.51
2018-01-28T08:26:26.317Z,87.31
2018-01-28T08:28:59.306Z,86.91
2018-01-28T08:31:26.769Z,87.21
2018-01-28T08:33:54.330Z,86.22
2018-01-28T08:36:21.798Z,86.90
2018-01-28T08:38:49.232Z,85.64
2018-01-28T08:41:21.661Z,86.08
2018-01-28T08:43:49.094Z,85.15
2018-01-28T08:46:16.754Z,85.27
2018-01-28T08:48:44.225Z,85.53
2018-01-28T08:51:11.679Z,85.36
2018-01-28T08:53:39.124Z,85.52
2018-01-28T08:56:06.657Z,85.32
2018-01-28T08:58:34.092Z,85.49
2018-01-28T09:01:01.934Z,85.03
2018-01-28T09:03:29.369Z,85.21
2018-01-28T09:05:56.786Z,85.35
2018-01-28T09:08:24.236Z,85.47
2018-01-28T09:10:51.670Z,84.40
2018-01-28T09:13:19.122Z,84.65
2018-01-28T09:15:46.544Z,84.96
2018-01-28T09:18:14.179Z,84.63
2018-01-28T09:20:41.611Z,84.42
2018-01-28T09:23:09.175Z,84.49
2018-01-28T09:25:36.606Z,84.75
2018-01-28T09:28:04.091Z,84.70
2018-01-28T09:30:31.523Z,84.71
2018-01-28T09:32:58.974Z,84.33
2018-01-28T09:35:26.405Z,84.76
2018-01-28T09:37:53.853Z,84.24
2018-01-28T09:40:21.284Z,84.18
2018-01-28T09:42:48.733Z,84.20
2018-01-28T09:45:16.206Z,83.91
2018-01-28T09:47:44.165Z,84.50
2018-01-28T09:50:12.140Z,84.27
2018-01-28T09:52:39.603Z,83.98
2018-01-28T09:55:07.036Z,83.82
2018-01-28T09:57:34.466Z,83.97
2018-01-28T10:00:01.903Z,83.94
2018-01-28T10:02:29.321Z,83.80
2018-01-28T10:04:56.784Z,83.68
2018-01-28T10:07:24.240Z,83.48
2018-01-28T10:09:52.486Z,83.51
2018-01-28T10:12:19.929Z,83.16
2018-01-28T10:14:47.388Z,83.25
2018-01-28T10:17:15.215Z,83.21
2018-01-28T10:19:42.725Z,83.39
2018-01-28T10:22:11.134Z,83.58
2018-01-28T10:24:38.613Z,83.16
2018-01-28T10:27:06.041Z,83.27
2018-01-28T10:29:33.494Z,82.96
2018-01-28T10:32:00.973Z,82.97
2018-01-28T10:34:28.521Z,82.74
2018-01-28T10:36:55.964Z,82.08
2018-01-28T10:39:23.422Z,82.53
2018-01-28T10:41:50.849Z,82.02
2018-01-28T10:44:18.343Z,82.53
2018-01-28T10:46:45.907Z,82.14
2018-01-28T10:49:13.342Z,81.47
2018-01-28T10:51:41.261Z,81.60
2018-01-28T10:54:08.719Z,81.42
2018-01-28T10:56:37.235Z,81.00
2018-01-28T10:59:04.676Z,81.43
2018-01-28T11:01:32.122Z,80.93
2018-01-28T11:03:59.560Z,81.13
2018-01-28T11:06:27.008Z,81.26
2018-01-28T11:08:54.438Z,80.64
2018-01-28T11:11:21.932Z,80.24
2018-01-28T11:13:49.396Z,80.84
2018-01-28T11:16:16.930Z,80.54
2018-01-28T11:18:44.386Z,80.60
2018-01-28T11:21:11.873Z,81.02
2018-01-28T11:23:39.391Z,80.90
2018-01-28T11:26:06.829Z,80.48
2018-01-28T11:28:34.259Z,80.34
2018-01-28T11:31:01.696Z,80.77
2018-01-28T11:33:29.114Z,80.89
2018-01-28T11:35:56.555Z,80.97
2018-01-28T11:38:24.016Z,81.25
2018-01-28T11:40:51.473Z,81.12
2018-01-28T11:43:19.072Z,80.98
2018-01-28T11:45:46.516Z,81.01
2018-01-28T11:48:13.939Z,81.23
2018-01-28T11:50:41.641Z,81.53
2018-01-28T11:53:09.085Z,81.41
2018-01-28T11:55:36.532Z,81.60
2018-01-28T11:58:03.969Z,81.63
2018-01-28T12:00:31.388Z,81.46
2018-01-28T12:02:58.820Z,81.48
2018-01-28T12:05:26.241Z,80.93
2018-01-28T12:07:53.695Z,81.59
2018-01-28T12:10:21.138Z,81.03
2018-01-28T12:12:48.578Z,81.09
2018-01-28T12:15:15.996Z,80.68
2018-01-28T12:17:43.436Z,80.85
2018-01-28T12:20:11.773Z,79.77
2018-01-28T12:22:39.258Z,80.05
2018-01-28T12:25:06.729Z,79.77
2018-01-28T12:27:34.167Z,80.47
2018-01-28T12:30:01.680Z,80.34
2018-01-28T12:32:30.783Z,80.30
2018-01-28T12:34:58.229Z,80.40
2018-01-28T12:37:25.641Z,80.76
2018-01-28T12:39:53.097Z,80.77
2018-01-28T12:42:20.542Z,80.42
2018-01-28T12:44:48.049Z,80.61
2018-01-28T12:47:16.211Z,80.29
2018-01-28T12:49:43.659Z,80.53
2018-01-28T12:52:11.894Z,80.72
2018-01-28T12:54:39.504Z,80.91
2018-01-28T12:57:06.935Z,80.53
2018-01-28T12:59:34.378Z,80.74
2018-01-28T13:02:01.804Z,80.12
2018-01-28T13:04:29.245Z,80.13
2018-01-28T13:06:56.694Z,79.24
2018-01-28T13:09:24.133Z,78.72
2018-01-28T13:11:51.584Z,78.69
2018-01-28T13:14:19.001Z,79.22
2018-01-28T13:16:46.453Z,78.89
2018-01-28T13:19:13.884Z,79.12
2018-01-28T13:21:42.086Z,79.56
2018-01-28T13:24:09.518Z,79.96
2018-01-28T13:26:36.981Z,80.08
2018-01-28T13:29:04.425Z,79.67
2018-01-28T13:31:31.938Z,79.64
2018-01-28T13:33:59.369Z,79.04
2018-01-28T13:36:26.821Z,79.15
2018-01-28T13:38:54.283Z,79.05
2018-01-28T13:41:21.781Z,79.69
2018-01-28T13:43:49.240Z,78.88
2018-01-28T13:46:16.702Z,78.81
2018-01-28T13:48:49.613Z,78.55
2018-01-28T13:51:20.843Z,77.50
2018-01-28T13:53:48.509Z,77.77
2018-01-28T13:56:15.966Z,77.66
2018-01-28T13:58:43.429Z,77.75
2018-01-28T14:01:10.996Z,77.82
2018-01-28T14:03:38.438Z,78.51
2018-01-28T14:06:06.134Z,78.44
2018-01-28T14:08:33.599Z,78.90
2018-01-28T14:11:01.059Z,78.86
2018-01-28T14:13:29.158Z,79.18
2018-01-28T14:15:56.631Z,78.91
2018-01-28T14:18:24.081Z,79.35
2018-01-28T14:20:51.511Z,79.69
2018-01-28T14:23:20.749Z,79.59
2018-01-28T14:25:49.751Z,79.80
2018-01-28T14:28:17.264Z,80.07
2018-01-28T14:30:44.719Z,80.11
2018-01-28T14:33:12.600Z,79.78
2018-01-28T14:35:40.033Z,79.94
2018-01-28T14:38:07.461Z,79.94
2018-01-28T14:40:34.901Z,80.05
2018-01-28T14:43:02.337Z,80.05
2018-01-28T14:45:29.820Z,79.98
2018-01-28T14:47:57.259Z,80.29
2018-01-28T14:50:24.706Z,79.90
2018-01-28T14:52:52.131Z,79.93
2018-01-28T14:55:19.568Z,80.32
2018-01-28T14:57:46.980Z,80.26
2018-01-28T15:00:14.429Z,80.38
2018-01-28T15:02:42.588Z,80.45
2018-01-28T15:05:10.139Z,80.44
2018-01-28T15:07:37.572Z,80.47
2018-01-28T15:10:05.028Z,80.55
2018-01-28T15:12:32.474Z,80.75
2018-01-28T15:15:00.154Z,80.61
2018-01-28T15:17:27.641Z,80.98
2018-01-28T15:19:55.072Z,80.93
2018-01-28T15:22:22.549Z,80.83
2018-01-28T15:24:49.968Z,81.33
2018-01-28T15:27:17.454Z,81.31
2018-01-28T15:29:44.871Z,81.36
2018-01-28T15:32:12.837Z,81.70
2018-01-28T15:34:40.260Z,81.64
2018-01-28T15:37:07.714Z,81.82
2018-01-28T15:39:35.136Z,81.79
2018-01-28T15:42:02.568Z,81.88
2018-01-28T15:44:30.098Z,82.13
2018-01-28T15:46:57.548Z,81.71
2018-01-28T15:49:24.999Z,81.81
2018-01-28T15:51:52.473Z,81.90
2018-01-28T15:54:19.896Z,82.13
2018-01-28T15:56:47.350Z,81.97
2018-01-28T15:59:15.230Z,82.03
2018-01-28T16:01:42.953Z,82.24
2018-01-28T16:04:10.426Z,82.18
2018-01-28T16:06:37.850Z,82.28
2018-01-28T16:09:05.287Z,82.24
2018-01-28T16:11:32.797Z,82.29
2018-01-28T16:14:00.313Z,82.29
2018-01-28T16:16:27.773Z,81.87
2018-01-28T16:18:55.214Z,82.32
2018-01-28T16:21:22.646Z,82.56
2018-01-28T16:23:50.089Z,82.16
2018-01-28T16:26:17.540Z,82.37
2018-01-28T16:28:45.014Z,82.34
2018-01-28T16:31:13.128Z,82.58
2018-01-28T16:33:41.453Z,82.82
2018-01-28T16:36:08.886Z,82.86
2018-01-28T16:38:36.367Z,82.56
2018-01-28T16:41:03.795Z,82.66
2018-01-28T16:43:31.220Z,82.78
2018-01-28T16:45:58.653Z,82.86
2018-01-28T16:48:26.132Z,82.96
2018-01-28T16:50:53.937Z,82.76
2018-01-28T16:53:21.434Z,82.60
2018-01-28T16:55:48.871Z,82.52
2018-01-28T16:58:16.288Z,82.93
2018-01-28T17:00:43.764Z,82.83
2018-01-28T17:03:11.188Z,82.73
2018-01-28T17:05:38.628Z,82.48
2018-01-28T17:08:06.196Z,82.81
2018-01-28T17:10:33.628Z,82.57
2018-01-28T17:13:01.057Z,82.59
2018-01-28T17:15:28.506Z,82.75
2018-01-28T17:17:55.941Z,82.71
2018-01-28T17:20:23.388Z,82.67
2018-01-28T17:22:50.830Z,82.58
2018-01-28T17:25:18.294Z,82.53
2018-01-28T17:27:45.746Z,82.98
2018-01-28T17:30:13.549Z,83.13
2018-01-28T17:32:41.079Z,83.13
2018-01-28T17:35:14.134Z,83.08
2018-01-28T17:37:42.391Z,82.69
2018-01-28T17:40:09.928Z,82.89
2018-01-28T17:42:37.433Z,82.79
2018-01-28T17:45:04.896Z,82.75
2018-01-28T17:47:32.346Z,82.80
2018-01-28T17:49:59.816Z,82.73
2018-01-28T17:52:27.251Z,82.54
2018-01-28T17:54:54.713Z,82.62
2018-01-28T17:57:22.162Z,82.73
2018-01-28T17:59:49.601Z,82.77
2018-01-28T18:02:17.107Z,82.48
2018-01-28T18:04:44.741Z,82.46
2018-01-28T18:07:12.252Z,82.31
2018-01-28T18:09:39.677Z,82.15
2018-01-28T18:12:07.238Z,82.27
2018-01-28T18:14:34.652Z,82.23
2018-01-28T18:17:02.080Z,82.07
2018-01-28T18:19:29.513Z,81.95
2018-01-28T18:21:57.024Z,81.69
2018-01-28T18:24:24.436Z,81.82
2018-01-28T18:26:51.881Z,81.90
2018-01-28T18:29:19.320Z,81.90
2018-01-28T18:31:46.769Z,81.70
2018-01-28T18:34:14.190Z,81.87
2018-01-28T18:36:41.676Z,81.68
2018-01-28T18:39:09.139Z,81.43
2018-01-28T18:41:36.724Z,81.40
2018-01-28T18:44:04.191Z,81.37
2018-01-28T18:46:31.678Z,81.17
2018-01-28T18:48:59.156Z,81.43
2018-01-28T18:51:26.649Z,81.07
2018-01-28T18:53:54.089Z,81.28
2018-01-28T18:56:21.510Z,81.33
2018-01-28T18:58:48.954Z,81.17
2018-01-28T19:01:16.385Z,81.31
2018-01-28T19:03:43.872Z,81.37
2018-01-28T19:06:11.339Z,81.31
2018-01-28T19:08:38.818Z,81.25
2018-01-28T19:11:06.275Z,81.31
2018-01-28T19:13:33.769Z,81.16
2018-01-28T19:16:01.194Z,81.23
2018-01-28T19:18:28.650Z,81.32
2018-01-28T19:20:56.360Z,81.42
2018-01-28T19:23:23.838Z,81.55
2018-01-28T19:25:51.346Z,81.30
2018-01-28T19:28:19.821Z,81.66
2018-01-28T19:30:47.270Z,81.57
2018-01-28T19:33:14.748Z,81.56
2018-01-28T19:35:42.202Z,81.50
2018-01-28T19:38:09.660Z,81.47
2018-01-28T19:40:37.081Z,81.53
2018-01-28T19:43:04.532Z,81.61
2018-01-28T19:45:32.083Z,81.53
2018-01-28T19:47:59.693Z,81.41
2018-01-28T19:50:27.237Z,81.48
2018-01-28T19:52:55.390Z,81.65
2018-01-28T19:55:22.814Z,81.54
2018-01-28T19:57:50.712Z,81.62
2018-01-28T20:00:18.175Z,81.45
2018-01-28T20:02:45.600Z,81.42
2018-01-28T20:05:14.124Z,81.32
2018-01-28T20:07:41.642Z,81.35
2018-01-28T20:10:11.937Z,81.56
2018-01-28T20:12:39.394Z,81.75
2018-01-28T20:15:06.868Z,81.78
2018-01-28T20:17:34.276Z,81.79
2018-01-28T20:20:01.732Z,81.59
2018-01-28T20:22:29.182Z,81.70
2018-01-28T20:24:56.663Z,81.63
2018-01-28T20:27:24.101Z,81.29
2018-01-28T20:29:51.571Z,81.52
2018-01-28T20:32:19.004Z,81.75
2018-01-28T20:34:46.570Z,81.69
2018-01-28T20:37:14.310Z,81.38
2018-01-28T20:39:41.825Z,81.62
2018-01-28T20:42:09.258Z,81.82
2018-01-28T20:44:36.693Z,81.25
2018-01-28T20:47:04.116Z,81.38
2018-01-28T20:49:31.555Z,81.85
2018-01-28T20:51:58.993Z,81.82
2018-01-28T20:54:26.531Z,81.55
2018-01-28T20:56:53.969Z,81.73
2018-01-28T20:59:21.390Z,82.05
2018-01-28T21:01:48.832Z,82.04
2018-01-28T21:04:16.316Z,82.11
2018-01-28T21:06:44.868Z,82.37
2018-01-28T21:09:12.313Z,82.21
2018-01-28T21:11:39.754Z,82.28
2018-01-28T21:14:07.194Z,82.10
2018-01-28T21:16:34.673Z,82.12
2018-01-28T21:19:02.080Z,82.04
2018-01-28T21:21:29.518Z,82.25
2018-01-28T21:23:56.945Z,82.29
2018-01-28T21:26:24.398Z,82.37
2018-01-28T21:28:51.831Z,82.57
2018-01-28T21:31:19.256Z,82.35
2018-01-28T21:33:46.716Z,82.09
2018-01-28T21:36:14.545Z,82.16
2018-01-28T21:38:42.267Z,82.35
2018-01-28T21:41:09.727Z,82.53
2018-01-28T21:43:37.197Z,82.52
2018-01-28T21:46:04.637Z,82.39
2018-01-28T21:48:34.212Z,82.33
2018-01-28T21:51:01.804Z,82.48
2018-01-28T21:53:29.513Z,82.54
2018-01-28T21:55:57.049Z,82.68
2018-01-28T21:58:24.503Z,82.56
2018-01-28T22:00:51.958Z,82.53
2018-01-28T22:03:19.400Z,82.29
2018-01-28T22:05:46.815Z,82.45
2018-01-28T22:08:14.669Z,82.08
2018-01-28T22:10:42.108Z,82.22
2018-01-28T22:13:09.660Z,82.37
2018-01-28T22:15:37.156Z,82.34
2018-01-28T22:18:04.590Z,82.38
2018-01-28T22:20:32.206Z,82.57
2018-01-28T22:22:59.632Z,82.16
2018-01-28T22:25:27.060Z,82.21
2018-01-28T22:27:54.476Z,81.71
2018-01-28T22:30:21.916Z,82.10
2018-01-28T22:32:49.345Z,81.74
2018-01-28T22:35:16.802Z,81.58
2018-01-28T22:37:44.749Z,82.03
2018-01-28T22:40:12.219Z,81.96
2018-01-28T22:42:39.780Z,81.66
2018-01-28T22:45:07.244Z,81.97
2018-01-28T22:47:34.680Z,81.91
2018-01-28T22:50:02.155Z,81.82
2018-01-28T22:52:29.720Z,81.94
2018-01-28T22:54:57.164Z,81.90
2018-01-28T22:57:24.609Z,81.94
2018-01-28T22:59:52.049Z,81.89
2018-01-28T23:02:19.470Z,81.83
2018-01-28T23:04:46.929Z,81.54
2018-01-28T23:07:14.910Z,81.66
2018-01-28T23:09:42.370Z,81.43
2018-01-28T23:12:09.812Z,81.61
2018-01-28T23:14:49.697Z,81.78
2018-01-28T23:17:22.838Z,81.69
2018-01-28T23:19:50.676Z,81.63
2018-01-28T23:22:18.134Z,81.91
2018-01-28T23:24:45.573Z,82.09
2018-01-28T23:27:13.013Z,82.41
2018-01-28T23:29:40.444Z,81.92
2018-01-28T23:32:08.021Z,81.81
2018-01-28T23:34:35.473Z,82.15
2018-01-28T23:37:02.960Z,82.27
2018-01-28T23:39:30.541Z,82.04
2018-01-28T23:41:57.973Z,82.21
2018-01-28T23:44:25.423Z,82.31
2018-01-28T23:46:53.008Z,82.19
2018-01-28T23:49:20.518Z,81.89
2018-01-28T23:51:47.978Z,82.02
2018-01-28T23:54:15.454Z,82.05
2018-01-28T23:56:43.021Z,82.18
2018-01-28T23:59:11.007Z,81.98
